Sahuarita, Arizona
Current Conditions -  °F | °C
As of 6:53 AM on Tuesday 21 Oct 2014 (Local Time) from KTUS Reporting Station
Clear Clear  
Wind Chill: 64°   Ceiling: Unl
Heat Index: 64°   Visibility: 10mi
Dew Point: 51°   Wind: 7mph
Humidity: 63%   Direction: 110°ESE
Pressure: 29.96"   Gusts: NA
Location:  31.96°N, 110.96°W
Report Text: KTUS 211353Z 11006KT 10SM CLR 18/11 A2996 RMK AO2 SLP107 T01780106
Loading
Personal Weather Stations






























Interactive Weather Map
Tropical Storm Tracking
New forecast layout! Learn more

10-Day Weather Forecast

Advertisements
Track Severe Weather on mobile